Time;durP1;ratioP1;P1;durP2;ratioP2;P2;SDS_P1;SDS_P2;PMS_P1;PMS_P2;Temp;Humidity;BMP_temperature;BMP_pressure;BME280_temperature;BME280_humidity;BME280_pressure;Samples;Min_cycle;Max_cycle;Signal;HPM_P1;HPM_P2
2022/08/26 00:00:55;;;;;;;7.75;5.50;;;20.90;99.90;;;;;;5024558;28;20331;-83
2022/08/26 00:03:23;;;;;;;9.75;5.72;;;20.80;99.90;;;;;;5025099;28;20239;-83
2022/08/26 00:05:50;;;;;;;10.10;5.38;;;20.80;99.90;;;;;;5025548;28;20236;-87
2022/08/26 00:08:20;;;;;;;11.30;6.00;;;20.80;99.90;;;;;;5025425;28;20217;-85
2022/08/26 00:10:47;;;;;;;10.30;5.90;;;20.70;99.90;;;;;;5024585;28;20323;-83
2022/08/26 00:13:14;;;;;;;8.80;5.97;;;20.70;99.90;;;;;;5023163;28;20348;-85
2022/08/26 00:15:41;;;;;;;10.18;5.63;;;20.70;99.90;;;;;;5027269;28;20355;-86
2022/08/26 00:18:10;;;;;;;8.02;5.53;;;20.60;99.90;;;;;;5026098;28;20248;-85
2022/08/26 00:20:38;;;;;;;8.30;5.70;;;20.60;99.90;;;;;;5025455;28;20221;-85
2022/08/26 00:23:05;;;;;;;11.90;6.13;;;20.60;99.90;;;;;;5024259;28;20316;-85
2022/08/26 00:25:32;;;;;;;11.10;6.28;;;20.50;99.90;;;;;;5022981;28;20312;-85
2022/08/26 00:27:59;;;;;;;8.25;5.55;;;20.50;99.90;;;;;;5024637;28;20316;-84
2022/08/26 00:30:28;;;;;;;8.48;5.93;;;20.50;99.90;;;;;;5025257;28;20236;-84
2022/08/26 00:32:59;;;;;;;8.77;5.70;;;20.50;99.90;;;;;;5023809;28;20229;-84
2022/08/26 00:35:28;;;;;;;9.57;5.70;;;20.40;99.90;;;;;;5024281;28;20229;-84
2022/08/26 00:37:55;;;;;;;11.52;5.95;;;20.40;99.90;;;;;;5024672;28;20745;-84
2022/08/26 00:40:26;;;;;;;14.38;6.13;;;20.40;99.90;;;;;;5024913;28;20232;-83
2022/08/26 00:42:52;;;;;;;11.35;6.57;;;20.40;99.90;;;;;;5024482;28;20347;-82
2022/08/26 00:45:20;;;;;;;10.68;5.88;;;20.40;99.90;;;;;;5022073;28;20243;-85
2022/08/26 00:47:49;;;;;;;8.25;5.63;;;20.40;99.90;;;;;;5023996;28;20233;-84
2022/08/26 00:50:21;;;;;;;9.93;5.70;;;20.40;99.90;;;;;;5022719;28;20256;-85
2022/08/26 00:52:50;;;;;;;9.88;6.40;;;20.50;99.90;;;;;;5025756;28;20229;-86
2022/08/26 00:55:20;;;;;;;8.75;5.80;;;20.50;99.90;;;;;;5022861;28;20229;-86
2022/08/26 00:57:49;;;;;;;11.45;6.13;;;20.50;99.90;;;;;;5025199;28;20286;-86
2022/08/26 01:00:22;;;;;;;7.72;5.43;;;20.50;99.90;;;;;;5025738;28;20239;-86
2022/08/26 01:02:49;;;;;;;11.88;6.22;;;20.50;99.90;;;;;;5026421;28;20232;-84
2022/08/26 01:05:17;;;;;;;13.73;6.28;;;20.50;99.90;;;;;;5022441;28;20236;-84
2022/08/26 01:07:45;;;;;;;9.57;5.80;;;20.50;99.90;;;;;;5025171;28;20232;-84
2022/08/26 01:10:17;;;;;;;8.23;5.50;;;20.50;99.90;;;;;;5022276;28;20316;-85
2022/08/26 01:12:47;;;;;;;8.93;5.50;;;20.50;99.90;;;;;;5023916;28;20255;-84
2022/08/26 01:15:18;;;;;;;10.82;5.70;;;20.50;99.90;;;;;;5037811;28;20256;-83
2022/08/26 01:17:46;;;;;;;8.50;5.57;;;20.50;99.90;;;;;;5022818;28;20744;-83
2022/08/26 01:20:22;;;;;;;8.52;5.55;;;20.50;99.90;;;;;;5022126;28;20224;-83
2022/08/26 01:22:56;;;;;;;8.80;5.70;;;20.60;99.90;;;;;;5024314;28;20258;-83
2022/08/26 01:25:26;;;;;;;9.27;5.97;;;20.50;99.90;;;;;;5021011;28;20243;-83
2022/08/26 01:27:56;;;;;;;11.57;6.00;;;20.50;99.90;;;;;;5023899;28;20233;-83
2022/08/26 01:30:23;;;;;;;10.48;5.90;;;20.50;99.90;;;;;;5024756;28;20232;-83
2022/08/26 01:32:51;;;;;;;7.07;5.60;;;20.50;99.90;;;;;;5022073;28;20228;-82
2022/08/26 01:35:19;;;;;;;9.15;5.53;;;20.50;99.90;;;;;;5037719;28;20235;-82
2022/08/26 01:37:49;;;;;;;10.38;5.53;;;20.50;99.90;;;;;;5022620;28;20880;-83
2022/08/26 01:40:21;;;;;;;12.15;6.28;;;20.40;99.90;;;;;;5020951;28;20252;-83
2022/08/26 01:42:48;;;;;;;10.38;5.88;;;20.50;99.90;;;;;;5023583;28;20314;-84
2022/08/26 01:45:18;;;;;;;11.07;6.20;;;20.40;99.90;;;;;;5022188;28;20898;-83
2022/08/26 01:47:47;;;;;;;11.43;6.22;;;20.40;99.90;;;;;;5022219;28;20239;-85
2022/08/26 01:50:16;;;;;;;11.20;6.18;;;20.40;99.90;;;;;;5038064;28;20246;-84
2022/08/26 01:52:46;;;;;;;9.55;6.25;;;20.40;99.90;;;;;;5022588;28;20239;-84
2022/08/26 01:55:14;;;;;;;9.50;6.18;;;20.40;99.90;;;;;;5020288;28;20225;-85
2022/08/26 01:57:43;;;;;;;10.70;6.10;;;20.30;99.90;;;;;;5022582;28;20232;-84
2022/08/26 02:00:13;;;;;;;10.93;6.45;;;20.30;99.90;;;;;;5023015;28;20255;-85
2022/08/26 02:02:40;;;;;;;8.98;6.13;;;20.30;99.90;;;;;;5021563;28;20232;-84
2022/08/26 02:05:11;;;;;;;9.32;6.03;;;20.30;99.90;;;;;;5020426;28;20229;-84
2022/08/26 02:07:39;;;;;;;8.90;6.50;;;20.20;99.90;;;;;;5022321;28;20251;-84
2022/08/26 02:10:07;;;;;;;8.68;6.00;;;20.20;99.90;;;;;;5021801;28;20243;-85
2022/08/26 02:12:34;;;;;;;11.95;6.57;;;20.20;99.90;;;;;;5023020;28;20229;-84
2022/08/26 02:15:07;;;;;;;13.18;6.15;;;20.10;99.90;;;;;;5022283;28;20237;-85
2022/08/26 02:17:37;;;;;;;11.93;6.38;;;20.10;99.90;;;;;;5023466;28;20274;-85
2022/08/26 02:20:05;;;;;;;10.18;5.97;;;20.00;99.90;;;;;;5022797;28;20957;-86
2022/08/26 02:22:33;;;;;;;13.85;6.57;;;20.00;99.90;;;;;;5024584;28;20229;-84
2022/08/26 02:25:05;;;;;;;10.40;6.57;;;20.00;99.90;;;;;;5021897;28;20224;-84
2022/08/26 02:27:34;;;;;;;9.90;6.82;;;20.00;99.90;;;;;;5024600;28;20228;-85
2022/08/26 02:30:07;;;;;;;9.90;6.13;;;19.90;99.90;;;;;;5022623;28;20709;-85
2022/08/26 02:32:34;;;;;;;9.93;6.53;;;19.90;99.90;;;;;;5022682;28;20227;-85
2022/08/26 02:35:01;;;;;;;9.82;6.72;;;19.80;99.90;;;;;;5023704;28;20235;-86
2022/08/26 02:37:30;;;;;;;11.75;6.30;;;19.70;99.90;;;;;;5029916;28;20225;-86
2022/08/26 02:39:57;;;;;;;10.57;6.75;;;19.70;99.90;;;;;;5026814;28;20795;-86
2022/08/26 02:42:23;;;;;;;9.27;6.57;;;19.70;99.90;;;;;;5028431;28;21098;-87
2022/08/26 02:44:50;;;;;;;12.02;6.43;;;19.60;99.90;;;;;;5025662;28;20220;-83
2022/08/26 02:47:19;;;;;;;15.90;7.18;;;19.60;99.90;;;;;;5028968;28;20737;-84
2022/08/26 02:49:46;;;;;;;10.20;7.25;;;19.60;99.90;;;;;;5029050;28;20227;-84
2022/08/26 02:52:13;;;;;;;14.00;6.95;;;19.50;99.90;;;;;;5027023;28;21004;-85
2022/08/26 02:54:39;;;;;;;12.07;7.47;;;19.50;99.90;;;;;;5027359;28;20220;-85
2022/08/26 02:57:06;;;;;;;11.52;6.78;;;19.50;99.90;;;;;;5026819;28;20227;-86
2022/08/26 02:59:34;;;;;;;12.00;6.55;;;19.40;99.90;;;;;;5028746;28;20232;-87
2022/08/26 03:02:01;;;;;;;11.80;7.30;;;19.40;99.90;;;;;;5041206;28;20241;-85
2022/08/26 03:04:29;;;;;;;9.27;6.82;;;19.40;99.90;;;;;;5043875;28;20224;-87
2022/08/26 03:06:57;;;;;;;9.95;6.90;;;19.30;99.90;;;;;;5027665;28;20231;-85
2022/08/26 03:09:23;;;;;;;12.48;7.03;;;19.30;99.90;;;;;;5042281;28;20590;-85
2022/08/26 03:11:50;;;;;;;10.20;6.88;;;19.30;99.90;;;;;;5027155;28;20239;-85
2022/08/26 03:14:17;;;;;;;13.60;7.10;;;19.30;99.90;;;;;;5027096;28;20335;-86
2022/08/26 03:16:44;;;;;;;13.82;7.93;;;19.30;99.90;;;;;;5051969;23;20616;-79
2022/08/26 03:19:11;;;;;;;13.68;7.30;;;19.20;99.90;;;;;;5059423;28;20208;-79
2022/08/26 03:21:39;;;;;;;12.60;7.93;;;19.20;99.90;;;;;;5050164;28;20231;-80
2022/08/26 03:24:06;;;;;;;10.05;6.63;;;19.20;99.90;;;;;;5060944;28;20470;-79
2022/08/26 03:26:32;;;;;;;11.93;7.40;;;19.20;99.90;;;;;;5075116;28;20232;-79
2022/08/26 03:31:44;;;;;;;12.70;7.43;;;19.20;99.90;;;;;;5055464;28;20239;-79
2022/08/26 03:34:11;;;;;;;10.38;7.05;;;19.10;99.90;;;;;;5057498;28;20310;-79
2022/08/26 03:36:39;;;;;;;12.68;7.65;;;19.10;99.90;;;;;;5063183;28;20318;-79
2022/08/26 03:39:06;;;;;;;12.02;7.70;;;19.10;99.90;;;;;;5061277;28;20852;-79
2022/08/26 03:41:33;;;;;;;14.13;7.10;;;19.20;99.90;;;;;;5058939;28;20227;-79
2022/08/26 03:44:00;;;;;;;10.55;6.95;;;19.20;99.90;;;;;;5054728;28;20307;-78
2022/08/26 03:46:27;;;;;;;10.98;7.65;;;19.20;99.90;;;;;;5062700;28;20238;-79
2022/08/26 03:48:53;;;;;;;12.50;7.28;;;19.20;99.90;;;;;;5062178;28;20971;-78
2022/08/26 03:51:20;;;;;;;12.30;7.50;;;19.20;99.90;;;;;;5062515;28;20223;-80
2022/08/26 03:53:48;;;;;;;10.13;7.47;;;19.20;99.90;;;;;;5061912;28;20262;-80
2022/08/26 03:56:15;;;;;;;13.95;7.30;;;19.20;99.90;;;;;;5056200;28;20223;-80
2022/08/26 03:58:43;;;;;;;12.60;7.47;;;19.20;99.90;;;;;;5057594;28;20231;-79
2022/08/26 04:01:11;;;;;;;13.68;7.80;;;19.20;99.90;;;;;;5054124;28;20247;-79
2022/08/26 04:06:22;;;;;;;16.43;8.07;;;19.20;99.90;;;;;;5061182;28;20250;-78
2022/08/26 04:08:53;;;;;;;11.68;7.30;;;19.20;99.90;;;;;;5054729;28;20227;-79
2022/08/26 04:11:21;;;;;;;11.70;8.00;;;19.20;99.90;;;;;;5051346;28;20238;-77
2022/08/26 04:13:49;;;;;;;14.02;8.30;;;19.20;99.90;;;;;;5056705;28;20224;-77
2022/08/26 04:16:17;;;;;;;10.70;7.82;;;19.10;99.90;;;;;;5050575;28;20216;-78
2022/08/26 04:18:44;;;;;;;14.00;8.30;;;19.10;99.90;;;;;;5057624;28;20252;-78
2022/08/26 04:21:11;;;;;;;12.23;8.57;;;19.10;99.90;;;;;;5056750;28;20227;-78
2022/08/26 04:23:38;;;;;;;11.00;7.97;;;19.10;99.90;;;;;;5061177;28;20302;-78
2022/08/26 04:26:06;;;;;;;13.93;8.73;;;19.10;99.90;;;;;;5059876;28;20740;-79
2022/08/26 04:28:33;;;;;;;13.98;8.13;;;19.10;99.90;;;;;;5053517;28;20247;-79
2022/08/26 04:30:59;;;;;;;11.17;8.00;;;19.10;99.90;;;;;;5053862;28;20231;-79
2022/08/26 04:33:26;;;;;;;9.70;7.53;;;19.00;99.90;;;;;;5057726;28;20220;-79
2022/08/26 04:35:59;;;;;;;11.80;8.50;;;19.00;99.90;;;;;;5074880;28;20228;-79
2022/08/26 04:38:26;;;;;;;10.57;7.90;;;19.00;99.90;;;;;;5062265;28;20284;-79
2022/08/26 04:40:52;;;;;;;12.20;7.95;;;19.00;99.90;;;;;;5059347;28;20227;-79
2022/08/26 04:43:23;;;;;;;13.23;8.10;;;19.10;99.90;;;;;;5055442;28;20257;-78
2022/08/26 04:45:50;;;;;;;12.15;8.45;;;19.10;99.90;;;;;;5058120;28;20227;-80
2022/08/26 04:48:16;;;;;;;15.02;8.60;;;19.10;99.90;;;;;;5058184;28;20303;-79
2022/08/26 04:50:43;;;;;;;14.83;8.70;;;19.10;99.90;;;;;;5054709;28;20461;-78
2022/08/26 04:53:10;;;;;;;14.27;8.73;;;19.20;99.90;;;;;;5054334;28;20217;-78
2022/08/26 04:55:38;;;;;;;10.18;8.15;;;19.20;99.90;;;;;;5051969;28;20231;-79
2022/08/26 04:58:07;;;;;;;12.52;8.68;;;19.20;99.90;;;;;;5056560;28;20246;-79
2022/08/26 05:00:35;;;;;;;13.57;8.85;;;19.30;99.90;;;;;;5053041;28;20224;-79
2022/08/26 05:03:02;;;;;;;11.20;8.45;;;19.30;99.90;;;;;;5054112;28;20717;-79
2022/08/26 05:05:31;;;;;;;12.88;8.15;;;19.40;99.90;;;;;;5054801;28;20227;-80
2022/08/26 05:07:57;;;;;;;14.63;9.00;;;19.40;99.90;;;;;;5059958;28;20273;-78
2022/08/26 05:10:24;;;;;;;12.88;8.38;;;19.40;99.90;;;;;;5055804;28;20281;-80
2022/08/26 05:12:51;;;;;;;15.63;9.25;;;19.50;99.90;;;;;;5058768;28;20845;-80
2022/08/26 05:15:18;;;;;;;12.57;8.88;;;19.50;99.90;;;;;;5058703;28;20894;-80
2022/08/26 05:17:46;;;;;;;12.88;9.27;;;19.60;99.90;;;;;;5052039;28;20238;-78
2022/08/26 05:20:13;;;;;;;15.23;8.70;;;19.60;99.90;;;;;;5056584;28;20219;-77
2022/08/26 05:22:40;;;;;;;12.90;8.90;;;19.70;99.90;;;;;;5055703;28;20239;-77
2022/08/26 05:25:07;;;;;;;14.18;8.93;;;19.70;99.90;;;;;;5049418;28;20226;-78
2022/08/26 05:27:33;;;;;;;17.30;8.93;;;19.80;99.90;;;;;;5046389;28;20245;-77
2022/08/26 05:30:01;;;;;;;15.40;8.65;;;19.80;99.90;;;;;;5058801;28;21805;-81
2022/08/26 05:32:30;;;;;;;13.27;9.20;;;19.90;99.90;;;;;;5058541;28;21204;-78
2022/08/26 05:34:58;;;;;;;12.75;8.85;;;19.90;99.90;;;;;;5050810;28;20303;-79
2022/08/26 05:37:25;;;;;;;15.20;9.02;;;19.90;99.90;;;;;;5056043;28;20219;-79
2022/08/26 05:39:52;;;;;;;11.07;9.00;;;20.00;99.90;;;;;;5058029;28;20349;-78
2022/08/26 05:42:18;;;;;;;12.60;8.25;;;20.00;99.90;;;;;;5055461;28;20220;-78
2022/08/26 05:44:45;;;;;;;10.45;8.27;;;20.10;99.90;;;;;;5055560;28;20308;-79
2022/08/26 05:47:14;;;;;;;15.25;8.95;;;20.10;99.90;;;;;;5054450;28;20246;-78
2022/08/26 05:49:40;;;;;;;14.15;9.57;;;20.10;99.90;;;;;;5058587;28;20230;-78
2022/08/26 05:52:08;;;;;;;15.38;9.70;;;20.20;99.90;;;;;;5051563;28;20386;-78
2022/08/26 05:54:35;;;;;;;12.95;9.40;;;20.20;99.90;;;;;;5054261;28;20675;-78
2022/08/26 05:57:01;;;;;;;14.10;9.43;;;20.30;99.90;;;;;;5052612;28;21237;-78
2022/08/26 05:59:28;;;;;;;13.35;9.68;;;20.30;99.90;;;;;;5055946;28;20223;-78
2022/08/26 06:01:55;;;;;;;16.17;9.73;;;20.40;99.90;;;;;;5050118;28;20311;-78
2022/08/26 06:04:22;;;;;;;13.25;10.00;;;20.40;99.90;;;;;;5054786;28;20245;-78
2022/08/26 06:06:51;;;;;;;16.95;9.88;;;20.50;99.90;;;;;;5057128;28;20323;-80
2022/08/26 06:09:19;;;;;;;15.05;10.02;;;20.50;99.90;;;;;;5056244;28;20234;-81
2022/08/26 06:11:46;;;;;;;15.88;10.27;;;20.60;99.90;;;;;;5059906;28;20234;-79
2022/08/26 06:14:12;;;;;;;14.52;9.68;;;20.70;99.90;;;;;;5051397;28;20219;-79
2022/08/26 06:16:42;;;;;;;10.98;9.75;;;20.70;99.90;;;;;;5056718;28;20602;-79
2022/08/26 06:19:14;;;;;;;15.93;10.10;;;20.80;99.90;;;;;;5064407;28;20778;-78
2022/08/26 06:21:44;;;;;;;14.60;10.05;;;20.80;99.90;;;;;;5060931;28;20223;-79
2022/08/26 06:27:04;;;;;;;16.15;10.55;;;21.00;99.90;;;;;;5060273;28;20223;-79
2022/08/26 06:29:33;;;;;;;14.57;9.85;;;21.00;99.90;;;;;;5059277;28;20238;-78
2022/08/26 06:32:01;;;;;;;14.25;10.00;;;21.10;99.90;;;;;;5060424;28;20288;-80
2022/08/26 06:34:28;;;;;;;14.68;10.02;;;21.20;99.90;;;;;;5058005;28;20227;-79
2022/08/26 06:36:57;;;;;;;17.02;10.25;;;21.30;99.90;;;;;;5060402;28;20314;-78
2022/08/26 06:39:24;;;;;;;13.35;9.25;;;21.30;99.90;;;;;;5060870;28;20844;-78
2022/08/26 06:41:51;;;;;;;16.15;9.10;;;21.40;99.90;;;;;;5055081;28;20937;-78
2022/08/26 06:44:19;;;;;;;12.45;9.32;;;21.50;99.90;;;;;;5055969;28;20244;-77
2022/08/26 06:46:49;;;;;;;12.77;8.32;;;21.60;99.90;;;;;;5059053;28;20765;-78
2022/08/26 06:49:16;;;;;;;15.95;9.32;;;21.60;99.90;;;;;;5056902;28;20238;-78
2022/08/26 06:51:42;;;;;;;16.38;8.82;;;21.70;99.90;;;;;;5060826;28;20235;-78
2022/08/26 06:54:10;;;;;;;11.10;9.15;;;21.80;99.90;;;;;;5056224;28;20222;-78
2022/08/26 06:56:39;;;;;;;13.45;8.88;;;21.80;99.90;;;;;;5064510;28;20800;-78
2022/08/26 06:59:07;;;;;;;12.77;9.25;;;21.90;99.90;;;;;;5063060;28;20226;-78
2022/08/26 07:01:39;;;;;;;16.52;9.13;;;21.90;99.90;;;;;;5057225;28;20224;-81
2022/08/26 07:04:07;;;;;;;12.35;8.65;;;22.00;99.90;;;;;;5060576;28;20270;-83
2022/08/26 07:06:38;;;;;;;17.63;9.05;;;22.10;99.90;;;;;;5059988;28;20733;-78
2022/08/26 07:09:08;;;;;;;14.48;8.82;;;22.10;99.90;;;;;;5057023;28;20235;-79
2022/08/26 07:11:36;;;;;;;13.15;7.82;;;22.20;99.90;;;;;;5061200;28;20658;-78
2022/08/26 07:14:03;;;;;;;13.57;8.73;;;22.30;99.90;;;;;;5062490;28;20247;-79
2022/08/26 07:16:30;;;;;;;11.90;7.97;;;22.30;99.90;;;;;;5066132;28;20234;-79
2022/08/26 07:18:58;;;;;;;10.63;7.88;;;22.40;99.90;;;;;;5063557;28;20228;-79
2022/08/26 07:21:25;;;;;;;12.38;8.20;;;22.40;99.90;;;;;;5053759;28;20307;-80
2022/08/26 07:23:53;;;;;;;14.15;8.57;;;22.50;99.90;;;;;;5062365;28;20596;-78
2022/08/26 07:26:23;;;;;;;10.60;7.57;;;22.60;99.90;;;;;;5062391;28;20714;-80
2022/08/26 07:28:52;;;;;;;11.15;7.82;;;22.70;99.90;;;;;;5064438;28;20265;-80
2022/08/26 07:31:20;;;;;;;13.88;8.45;;;22.70;99.90;;;;;;5062013;28;20269;-80
2022/08/26 07:33:48;;;;;;;12.48;8.00;;;22.80;99.90;;;;;;5059148;28;20215;-78
2022/08/26 07:36:18;;;;;;;11.35;7.50;;;22.90;99.90;;;;;;5061912;28;20293;-78
2022/08/26 07:38:46;;;;;;;12.27;7.32;;;23.00;99.90;;;;;;5051285;28;20266;-78
2022/08/26 07:41:14;;;;;;;11.80;8.07;;;23.20;99.90;;;;;;5053352;28;20712;-77
2022/08/26 07:43:44;;;;;;;12.27;7.47;;;23.40;99.90;;;;;;5049534;28;20323;-77
2022/08/26 07:46:18;;;;;;;12.30;7.47;;;23.80;99.90;;;;;;5051585;28;20762;-76
2022/08/26 07:48:45;;;;;;;11.15;7.15;;;24.30;99.90;;;;;;5046391;28;20255;-78
2022/08/26 07:51:12;;;;;;;10.07;6.72;;;24.90;99.90;;;;;;5064700;28;20750;-77
2022/08/26 07:53:41;;;;;;;10.05;6.85;;;25.60;99.90;;;;;;5064618;28;20219;-76
2022/08/26 07:56:08;;;;;;;11.00;6.40;;;26.30;99.90;;;;;;5061452;28;20224;-77
2022/08/26 07:58:35;;;;;;;8.80;6.53;;;27.10;99.90;;;;;;5062660;28;20229;-77
2022/08/26 08:01:01;;;;;;;8.85;6.38;;;27.80;99.90;;;;;;5059421;28;20680;-78
2022/08/26 08:03:28;;;;;;;12.00;7.47;;;28.40;99.90;;;;;;5057637;28;20269;-77
2022/08/26 08:05:57;;;;;;;14.20;6.80;;;29.00;99.60;;;;;;5053333;28;20662;-77
2022/08/26 08:08:24;;;;;;;14.90;6.63;;;29.40;98.90;;;;;;5061442;28;20243;-82
2022/08/26 08:10:52;;;;;;;10.75;7.07;;;29.90;98.60;;;;;;5058192;28;20283;-82
2022/08/26 08:13:18;;;;;;;8.85;6.45;;;30.30;97.40;;;;;;5063592;28;20234;-80
2022/08/26 08:15:45;;;;;;;11.57;6.70;;;30.80;97.20;;;;;;5052651;28;20315;-82
2022/08/26 08:18:12;;;;;;;9.73;6.88;;;31.20;96.40;;;;;;5057519;28;20231;-81
2022/08/26 08:20:39;;;;;;;9.32;6.07;;;31.70;95.60;;;;;;5061863;28;20323;-82
2022/08/26 08:23:06;;;;;;;11.13;6.53;;;32.00;94.50;;;;;;5055056;28;20800;-82
2022/08/26 08:25:33;;;;;;;12.30;6.60;;;32.40;94.20;;;;;;5061194;28;20234;-82
2022/08/26 08:28:01;;;;;;;10.80;6.85;;;32.60;93.70;;;;;;5055448;28;20245;-81
2022/08/26 08:30:28;;;;;;;12.63;7.30;;;32.90;92.80;;;;;;5060949;28;20702;-81
2022/08/26 08:32:55;;;;;;;11.20;6.78;;;33.30;91.90;;;;;;5053503;28;20242;-83
2022/08/26 08:35:25;;;;;;;9.77;6.65;;;33.50;91.60;;;;;;5061386;28;20280;-81
2022/08/26 08:37:55;;;;;;;10.45;6.57;;;33.70;90.60;;;;;;5059002;28;20227;-81
2022/08/26 08:40:24;;;;;;;9.48;6.35;;;33.90;90.20;;;;;;5062366;28;20215;-81
2022/08/26 08:42:57;;;;;;;9.38;6.68;;;34.10;90.20;;;;;;5055063;28;20945;-77
2022/08/26 08:45:33;;;;;;;9.50;7.20;;;34.40;88.90;;;;;;5052773;28;20216;-78
2022/08/26 08:48:02;;;;;;;9.55;6.97;;;34.60;86.90;;;;;;5054195;28;20219;-77
2022/08/26 08:50:32;;;;;;;11.05;6.97;;;34.90;87.40;;;;;;5060563;28;20992;-77
2022/08/26 08:53:07;;;;;;;12.90;7.13;;;35.10;85.60;;;;;;5057304;28;20219;-78
2022/08/26 08:55:44;;;;;;;8.32;6.13;;;35.20;83.90;;;;;;5056355;28;20325;-78
2022/08/26 08:58:17;;;;;;;10.05;6.88;;;35.30;83.10;;;;;;5055219;28;20526;-78
2022/08/26 09:00:51;;;;;;;13.55;6.53;;;35.40;82.30;;;;;;5057815;28;20307;-78
2022/08/26 09:03:33;;;;;;;8.60;6.57;;;35.60;81.40;;;;;;5043862;28;20861;-80
2022/08/26 09:06:03;;;;;;;11.80;7.50;;;35.80;80.30;;;;;;5053985;28;20219;-78
2022/08/26 09:08:34;;;;;;;8.45;6.50;;;36.00;80.10;;;;;;5055460;28;21280;-77
2022/08/26 09:11:03;;;;;;;11.32;6.70;;;36.30;79.30;;;;;;5056670;28;20227;-78
2022/08/26 09:13:30;;;;;;;9.68;6.38;;;36.50;79.30;;;;;;5048606;28;20223;-77
2022/08/26 09:16:07;;;;;;;10.35;6.50;;;36.70;78.50;;;;;;5052409;28;20310;-78
2022/08/26 09:19:00;;;;;;;11.23;7.18;;;36.80;77.30;;;;;;5049681;28;20957;-78
2022/08/26 09:21:27;;;;;;;11.18;7.20;;;37.00;77.50;;;;;;5054854;28;20301;-77
2022/08/26 09:23:57;;;;;;;12.70;6.75;;;37.00;74.90;;;;;;5075039;22;20659;-88
2022/08/26 09:26:26;;;;;;;10.88;6.00;;;37.00;74.10;;;;;;5057008;28;20236;-88
2022/08/26 09:28:56;;;;;;;10.13;6.53;;;36.90;73.80;;;;;;5053938;28;20224;-86
2022/08/26 09:31:27;;;;;;;15.48;6.90;;;37.10;73.70;;;;;;5073146;28;20229;-87
2022/08/26 09:34:06;;;;;;;9.25;6.25;;;37.20;72.10;;;;;;5055915;28;20231;-87
2022/08/26 09:36:36;;;;;;;12.82;6.57;;;37.30;72.10;;;;;;5053367;28;20381;-85
2022/08/26 09:39:04;;;;;;;12.85;6.80;;;37.30;70.60;;;;;;5053729;28;20307;-87
2022/08/26 09:41:35;;;;;;;10.27;6.20;;;37.20;70.20;;;;;;5060266;28;20318;-86
2022/08/26 09:44:13;;;;;;;11.75;6.38;;;37.00;69.40;;;;;;5050355;28;20726;-87
2022/08/26 09:46:45;;;;;;;11.93;6.35;;;36.80;69.50;;;;;;5053634;28;20219;-85
2022/08/26 09:49:26;;;;;;;10.70;6.57;;;36.50;69.30;;;;;;5056728;28;20223;-87
2022/08/26 09:52:14;;;;;;;10.25;6.30;;;36.30;69.00;;;;;;5053963;28;20465;-87
2022/08/26 09:54:45;;;;;;;15.90;7.13;;;35.90;70.20;;;;;;5053604;28;20311;-87
2022/08/26 09:57:28;;;;;;;16.23;6.72;;;35.70;70.40;;;;;;5056448;28;20224;-87
2022/08/26 09:59:55;;;;;;;13.38;6.75;;;35.40;70.70;;;;;;5056353;28;20223;-87
2022/08/26 10:02:41;;;;;;;12.32;7.13;;;35.20;71.50;;;;;;5053386;28;20242;-86
2022/08/26 10:05:15;;;;;;;12.52;6.55;;;34.90;71.00;;;;;;5055259;28;20223;-86
2022/08/26 10:07:47;;;;;;;11.88;6.88;;;34.80;72.30;;;;;;5052797;28;20234;-87
2022/08/26 10:10:19;;;;;;;13.32;7.07;;;34.80;72.00;;;;;;5060412;28;20226;-86
2022/08/26 10:12:53;;;;;;;10.50;6.32;;;34.90;71.60;;;;;;5059533;28;20238;-87
2022/08/26 10:15:23;;;;;;;14.23;7.13;;;35.00;71.20;;;;;;5052587;28;20235;-86
2022/08/26 10:17:58;;;;;;;11.77;6.80;;;34.90;69.70;;;;;;5051621;28;20293;-86
2022/08/26 10:20:28;;;;;;;14.20;7.40;;;34.70;69.50;;;;;;5056519;28;20302;-87
2022/08/26 10:23:00;;;;;;;11.85;6.45;;;34.40;69.40;;;;;;5057310;28;20223;-87
2022/08/26 10:25:31;;;;;;;13.98;6.28;;;34.10;70.60;;;;;;5055953;28;20223;-87
2022/08/26 10:28:05;;;;;;;13.98;6.88;;;33.90;71.10;;;;;;5073557;28;20662;-86
2022/08/26 10:30:37;;;;;;;15.40;7.07;;;33.70;70.90;;;;;;5060519;28;20220;-86
2022/08/26 10:33:08;;;;;;;10.82;6.13;;;33.60;71.50;;;;;;5058937;28;21210;-87
2022/08/26 10:35:37;;;;;;;12.90;6.30;;;33.60;72.00;;;;;;5035086;28;20854;-86
2022/08/26 10:38:10;;;;;;;17.50;6.45;;;33.80;72.50;;;;;;5034979;28;20224;-87
2022/08/26 10:40:50;;;;;;;10.18;6.05;;;34.10;71.40;;;;;;5045471;28;20298;-87
2022/08/26 10:43:21;;;;;;;12.32;5.82;;;34.50;71.40;;;;;;5046479;28;20227;-87
2022/08/26 10:45:51;;;;;;;10.10;5.82;;;34.90;70.80;;;;;;5041879;28;20234;-88
2022/08/26 10:48:24;;;;;;;12.07;6.13;;;35.30;70.20;;;;;;5037029;28;20244;-85
2022/08/26 10:50:51;;;;;;;16.33;6.43;;;35.60;68.40;;;;;;5037534;28;20223;-87
2022/08/26 10:53:23;;;;;;;14.45;6.65;;;35.90;69.10;;;;;;5034340;28;20237;-85
2022/08/26 10:55:59;;;;;;;14.77;5.93;;;36.30;67.20;;;;;;5052852;28;20260;-87
2022/08/26 10:58:41;;;;;;;9.65;5.50;;;36.60;66.70;;;;;;5035192;28;20225;-85
2022/08/26 11:04:07;;;;;;;11.68;5.80;;;37.00;64.00;;;;;;5029899;28;20254;-84
2022/08/26 11:06:34;;;;;;;15.05;5.75;;;37.00;64.00;;;;;;5043238;28;20219;-84
2022/08/26 11:09:03;;;;;;;11.70;6.13;;;37.10;65.00;;;;;;5040957;28;20839;-85
2022/08/26 11:11:45;;;;;;;11.85;5.45;;;37.20;64.60;;;;;;5061654;28;20231;-84
2022/08/26 11:14:31;;;;;;;10.60;5.82;;;37.50;62.50;;;;;;5059295;28;20239;-84
2022/08/26 11:16:58;;;;;;;13.05;5.25;;;37.80;63.20;;;;;;5061654;28;20743;-84
2022/08/26 11:19:58;;;;;;;13.70;5.47;;;38.10;61.90;;;;;;5054974;28;20758;-85
2022/08/26 11:22:27;;;;;;;12.98;5.70;;;38.40;61.40;;;;;;5036551;28;20258;-84
2022/08/26 11:25:10;;;;;;;14.45;6.05;;;38.70;60.80;;;;;;5025265;28;20303;-84
2022/08/26 11:28:02;;;;;;;10.93;5.55;;;38.90;59.10;;;;;;5057603;28;20227;-85
2022/08/26 11:30:44;;;;;;;13.07;5.35;;;39.00;58.30;;;;;;5038705;28;20225;-84
2022/08/26 11:33:31;;;;;;;9.60;5.65;;;39.00;58.40;;;;;;5035135;28;20607;-84
2022/08/26 11:35:59;;;;;;;8.70;5.20;;;39.10;58.20;;;;;;5036227;28;20239;-84
2022/08/26 11:38:28;;;;;;;10.82;5.60;;;39.10;57.70;;;;;;5031977;28;20232;-84
2022/08/26 11:41:02;;;;;;;14.73;5.65;;;39.10;57.30;;;;;;5036018;28;20217;-84
2022/08/26 11:43:29;;;;;;;10.85;5.68;;;39.20;57.30;;;;;;5044133;28;20238;-84
2022/08/26 11:46:02;;;;;;;14.80;6.03;;;39.20;56.80;;;;;;5034681;28;20760;-84
2022/08/26 11:48:32;;;;;;;11.23;4.90;;;39.00;56.10;;;;;;5051782;28;20230;-85
2022/08/26 11:51:03;;;;;;;9.10;5.32;;;38.80;56.50;;;;;;5031665;28;20231;-85
2022/08/26 11:53:32;;;;;;;11.50;5.68;;;38.70;56.00;;;;;;5055151;28;20962;-84
2022/08/26 11:56:01;;;;;;;11.02;5.40;;;38.50;56.50;;;;;;5064385;28;20220;-83
2022/08/26 11:58:29;;;;;;;9.40;5.18;;;38.30;56.50;;;;;;5060311;28;20578;-85
2022/08/26 12:01:01;;;;;;;9.57;5.07;;;38.20;56.60;;;;;;5050889;28;20255;-85
2022/08/26 12:03:37;;;;;;;11.23;5.30;;;38.10;56.60;;;;;;5039911;28;20325;-85
2022/08/26 12:06:13;;;;;;;10.90;5.47;;;38.10;56.00;;;;;;5040624;28;20241;-85
2022/08/26 12:08:42;;;;;;;10.02;5.40;;;38.10;55.70;;;;;;5040318;28;20231;-85
2022/08/26 12:11:12;;;;;;;12.88;6.28;;;38.20;56.70;;;;;;5050686;28;20987;-85
2022/08/26 12:13:41;;;;;;;10.93;5.18;;;38.30;55.90;;;;;;5040273;28;20240;-85
2022/08/26 12:16:07;;;;;;;8.57;4.75;;;38.40;55.20;;;;;;5039877;28;20770;-84
2022/08/26 12:18:36;;;;;;;7.60;5.18;;;38.50;54.90;;;;;;5042979;28;20323;-84
2022/08/26 12:21:12;;;;;;;11.52;5.28;;;38.50;54.90;;;;;;5059566;28;20231;-85
2022/08/26 12:23:42;;;;;;;9.90;4.53;;;38.50;54.90;;;;;;5047266;28;20237;-85
2022/08/26 12:26:12;;;;;;;10.05;5.22;;;38.60;54.60;;;;;;5061898;28;20238;-85
2022/08/26 12:28:47;;;;;;;8.80;5.65;;;38.60;54.20;;;;;;5060941;28;20396;-84
2022/08/26 12:31:24;;;;;;;12.02;5.13;;;38.50;54.00;;;;;;5061327;28;20663;-85
2022/08/26 12:33:51;;;;;;;9.98;5.25;;;38.50;53.30;;;;;;5034177;28;20303;-84
2022/08/26 12:36:23;;;;;;;7.88;5.00;;;38.50;52.80;;;;;;5033550;28;20231;-85
2022/08/26 12:38:50;;;;;;;10.43;5.15;;;38.50;52.60;;;;;;5038766;28;20319;-84
2022/08/26 12:41:44;;;;;;;8.48;5.32;;;38.50;53.10;;;;;;5038130;28;20236;-85
2022/08/26 12:44:36;;;;;;;11.32;5.53;;;38.30;53.40;;;;;;5037630;28;20236;-85
2022/08/26 12:47:07;;;;;;;10.43;5.32;;;38.20;54.00;;;;;;5030936;28;20981;-84
2022/08/26 12:49:35;;;;;;;7.82;4.80;;;38.10;53.80;;;;;;5029502;28;20253;-84
2022/08/26 12:52:04;;;;;;;9.77;5.43;;;38.00;54.60;;;;;;5038379;28;20343;-86
2022/08/26 12:57:12;;;;;;;16.35;5.47;;;37.80;53.80;;;;;;5046414;28;20211;-84
2022/08/26 12:59:39;;;;;;;12.82;5.50;;;37.70;54.20;;;;;;5031514;28;20231;-85
2022/08/26 13:02:06;;;;;;;10.50;5.20;;;37.60;54.20;;;;;;5037999;28;20212;-84
2022/08/26 13:04:39;;;;;;;11.68;5.57;;;37.50;54.20;;;;;;5030780;28;20233;-83